createdAt,value
2018-03-24T00:02:10.356Z,3.65
2018-03-24T00:04:40.653Z,3.59
2018-03-24T00:07:15.891Z,3.56
2018-03-24T00:09:44.287Z,3.38
2018-03-24T00:12:12.712Z,3.52
2018-03-24T00:14:42.392Z,3.56
2018-03-24T00:17:12.678Z,3.48
2018-03-24T00:19:47.884Z,3.54
2018-03-24T00:22:16.364Z,3.68
2018-03-24T00:24:45.563Z,3.68
2018-03-24T00:27:15.240Z,3.65
2018-03-24T00:29:44.503Z,3.34
2018-03-24T00:32:15.712Z,3.32
2018-03-24T00:34:45.845Z,3.45
2018-03-24T00:37:15.632Z,3.54
2018-03-24T00:39:46.504Z,3.51
2018-03-24T00:42:16.566Z,3.42
2018-03-24T00:44:47.649Z,3.37
2018-03-24T00:47:17.469Z,3.40
2018-03-24T00:49:47.719Z,3.49
2018-03-24T00:52:18.660Z,3.41
2018-03-24T00:54:48.563Z,3.43
2018-03-24T00:57:19.838Z,3.54
2018-03-24T00:59:50.136Z,3.62
2018-03-24T01:02:20.032Z,3.65
2018-03-24T01:04:50.976Z,3.61
2018-03-24T01:07:20.783Z,3.56
2018-03-24T01:09:52.032Z,3.59
2018-03-24T01:12:34.340Z,3.58
2018-03-24T01:15:03.994Z,3.61
2018-03-24T01:17:37.802Z,3.49
2018-03-24T01:20:06.182Z,3.54
2018-03-24T01:22:34.572Z,3.51
2018-03-24T01:25:02.886Z,3.51
2018-03-24T01:27:32.022Z,3.63
2018-03-24T01:30:00.959Z,3.66
2018-03-24T01:32:29.472Z,3.58
2018-03-24T01:34:57.833Z,3.50
2018-03-24T01:37:26.226Z,3.58
2018-03-24T01:39:55.705Z,3.08
2018-03-24T01:42:30.788Z,3.62
2018-03-24T01:44:59.138Z,3.60
2018-03-24T01:47:27.944Z,3.50
2018-03-24T01:49:57.754Z,3.44
2018-03-24T01:52:27.800Z,3.46
2018-03-24T01:54:58.735Z,3.50
2018-03-24T01:57:28.795Z,3.49
2018-03-24T01:59:59.955Z,3.43
2018-03-24T02:02:29.780Z,3.51
2018-03-24T02:04:59.905Z,3.52
2018-03-24T02:07:30.672Z,3.51
2018-03-24T02:10:00.787Z,3.53
2018-03-24T02:12:31.425Z,3.48
2018-03-24T02:15:01.889Z,3.27
2018-03-24T02:17:31.961Z,3.41
2018-03-24T02:20:03.055Z,3.43
2018-03-24T02:22:32.891Z,3.53
2018-03-24T02:25:14.420Z,3.57
2018-03-24T02:27:42.823Z,3.55
2018-03-24T02:30:11.940Z,3.45
2018-03-24T02:32:40.268Z,3.40
2018-03-24T02:35:09.032Z,3.44
2018-03-24T02:37:37.771Z,3.48
2018-03-24T02:40:06.139Z,3.44
2018-03-24T02:42:35.928Z,3.39
2018-03-24T02:45:07.067Z,3.44
2018-03-24T02:47:36.628Z,3.37
2018-03-24T02:50:07.700Z,3.22
2018-03-24T02:52:37.906Z,3.31
2018-03-24T02:55:07.752Z,3.36
2018-03-24T02:57:38.164Z,3.51
2018-03-24T03:00:08.766Z,3.51
2018-03-24T03:02:39.788Z,3.46
2018-03-24T03:05:09.432Z,3.42
2018-03-24T03:07:39.964Z,3.45
2018-03-24T03:10:10.479Z,3.29
2018-03-24T03:12:40.378Z,3.24
2018-03-24T03:15:11.609Z,3.25
2018-03-24T03:17:41.815Z,3.25
2018-03-24T03:20:11.803Z,3.03
2018-03-24T03:22:43.025Z,2.97
2018-03-24T03:25:12.783Z,3.07
2018-03-24T03:27:43.940Z,3.31
2018-03-24T03:30:32.708Z,3.41
2018-03-24T03:33:01.101Z,3.23
2018-03-24T03:35:30.163Z,3.04
2018-03-24T03:37:59.290Z,3.04
2018-03-24T03:40:27.600Z,3.18
2018-03-24T03:42:55.954Z,3.13
2018-03-24T03:45:24.302Z,3.14
2018-03-24T03:47:53.430Z,3.27
2018-03-24T03:50:21.753Z,3.33
2018-03-24T03:52:50.106Z,3.36
2018-03-24T03:55:18.490Z,3.30
2018-03-24T03:57:47.833Z,3.26
2018-03-24T04:00:19.062Z,3.23
2018-03-24T04:02:48.837Z,3.05
2018-03-24T04:05:19.810Z,3.09
2018-03-24T04:07:49.789Z,3.07
2018-03-24T04:10:19.662Z,3.04
2018-03-24T04:12:54.762Z,3.10
2018-03-24T04:15:23.075Z,3.17
2018-03-24T04:17:51.896Z,3.20
2018-03-24T04:20:21.826Z,3.21
2018-03-24T04:22:51.896Z,3.14
2018-03-24T04:25:22.990Z,3.12
2018-03-24T04:27:52.826Z,2.99
2018-03-24T04:30:24.008Z,3.14
2018-03-24T04:32:53.830Z,2.95
2018-03-24T04:35:23.783Z,3.02
2018-03-24T04:37:55.020Z,3.09
2018-03-24T04:40:24.860Z,2.95
2018-03-24T04:42:59.932Z,3.17
2018-03-24T04:45:28.918Z,3.23
2018-03-24T04:47:57.473Z,3.26
2018-03-24T04:50:26.816Z,3.29
2018-03-24T04:52:56.445Z,3.28
2018-03-24T04:55:32.464Z,3.36
2018-03-24T04:58:01.217Z,3.37
2018-03-24T05:00:30.121Z,3.36
2018-03-24T05:02:59.009Z,3.43
2018-03-24T05:05:29.014Z,3.30
2018-03-24T05:07:59.630Z,3.10
2018-03-24T05:10:29.706Z,3.17
2018-03-24T05:12:59.498Z,3.07
2018-03-24T05:15:31.987Z,2.93
2018-03-24T05:18:00.762Z,2.87
2018-03-24T05:20:32.190Z,2.89
2018-03-24T05:23:04.017Z,2.87
2018-03-24T05:25:33.609Z,2.74
2018-03-24T05:28:03.582Z,2.81
2018-03-24T05:30:32.612Z,2.89
2018-03-24T05:33:03.863Z,2.86
2018-03-24T05:35:33.772Z,2.82
2018-03-24T05:38:04.095Z,2.86
2018-03-24T05:40:34.913Z,2.91
2018-03-24T05:43:04.945Z,2.93
2018-03-24T05:45:35.767Z,2.80
2018-03-24T05:48:05.711Z,3.02
2018-03-24T05:50:36.049Z,3.09
2018-03-24T05:53:06.693Z,3.18
2018-03-24T05:55:36.017Z,3.47
2018-03-24T05:58:13.843Z,3.16
2018-03-24T06:00:43.013Z,3.46
2018-03-24T06:03:12.537Z,3.63
2018-03-24T06:05:40.883Z,3.81
2018-03-24T06:08:12.111Z,3.62
2018-03-24T06:10:41.235Z,3.60
2018-03-24T06:13:10.247Z,3.72
2018-03-24T06:15:40.088Z,3.64
2018-03-24T06:18:12.840Z,3.90
2018-03-24T06:20:41.653Z,3.87
2018-03-24T06:23:12.452Z,4.04
2018-03-24T06:25:42.036Z,3.98
2018-03-24T06:28:12.004Z,3.89
2018-03-24T06:30:50.997Z,0.80
2018-03-24T06:33:20.471Z,3.80
2018-03-24T06:35:49.637Z,3.85
2018-03-24T06:38:18.328Z,3.81
2018-03-24T06:40:46.863Z,4.19
2018-03-24T06:43:17.481Z,4.47
2018-03-24T06:45:45.859Z,4.61
2018-03-24T06:48:14.340Z,4.08
2018-03-24T06:50:43.536Z,4.95
2018-03-24T06:53:13.848Z,5.47
2018-03-24T06:55:44.916Z,5.19
2018-03-24T06:58:15.024Z,5.11
2018-03-24T07:00:48.470Z,5.63
2018-03-24T07:03:18.129Z,6.10
2018-03-24T07:05:48.111Z,6.20
2018-03-24T07:08:18.891Z,5.41
2018-03-24T07:10:48.744Z,5.87
2018-03-24T07:13:35.181Z,6.15
2018-03-24T07:16:03.637Z,6.10
2018-03-24T07:18:32.158Z,6.44
2018-03-24T07:21:00.645Z,6.56
2018-03-24T07:23:32.084Z,4.94
2018-03-24T07:26:01.309Z,7.01
2018-03-24T07:28:30.087Z,7.04
2018-03-24T07:30:59.240Z,5.84
2018-03-24T07:33:27.543Z,5.18
2018-03-24T07:35:56.672Z,5.21
2018-03-24T07:38:25.033Z,5.35
2018-03-24T07:40:55.226Z,6.07
2018-03-24T07:43:24.356Z,6.32
2018-03-24T07:45:54.826Z,6.77
2018-03-24T07:48:24.486Z,7.45
2018-03-24T07:50:54.777Z,7.64
2018-03-24T07:53:25.128Z,6.68
2018-03-24T07:55:55.023Z,7.06
2018-03-24T07:58:29.620Z,7.02
2018-03-24T08:00:58.072Z,6.79
2018-03-24T08:03:27.964Z,7.09
2018-03-24T08:05:57.303Z,7.70
2018-03-24T08:08:27.416Z,7.34
2018-03-24T08:10:58.286Z,7.36
2018-03-24T08:13:39.674Z,7.23
2018-03-24T08:16:08.176Z,7.95
2018-03-24T08:18:36.536Z,7.60
2018-03-24T08:21:05.916Z,8.11
2018-03-24T08:23:35.238Z,8.53
2018-03-24T08:26:06.494Z,8.75
2018-03-24T08:28:35.720Z,9.42
2018-03-24T08:31:04.094Z,7.81
2018-03-24T08:33:32.831Z,8.02
2018-03-24T08:36:02.965Z,8.92
2018-03-24T08:38:32.706Z,7.95
2018-03-24T08:41:03.808Z,7.51
2018-03-24T08:43:33.848Z,7.70
2018-03-24T08:46:03.864Z,8.93
2018-03-24T08:48:34.813Z,8.44
2018-03-24T08:51:04.832Z,8.92
2018-03-24T08:53:39.837Z,7.76
2018-03-24T08:56:08.189Z,8.40
2018-03-24T08:58:36.590Z,8.70
2018-03-24T09:01:06.998Z,8.93
2018-03-24T09:03:36.418Z,8.33
2018-03-24T09:06:07.882Z,8.85
2018-03-24T09:08:37.878Z,8.64
2018-03-24T09:11:07.874Z,8.82
2018-03-24T09:13:38.884Z,8.74
2018-03-24T09:16:08.504Z,8.81
2018-03-24T09:18:39.635Z,9.56
2018-03-24T09:21:09.961Z,8.88
2018-03-24T09:23:39.744Z,8.41
2018-03-24T09:26:10.956Z,8.49
2018-03-24T09:28:40.539Z,9.45
2018-03-24T09:31:11.840Z,8.92
2018-03-24T09:33:41.807Z,8.64
2018-03-24T09:36:11.886Z,9.44
2018-03-24T09:38:42.443Z,9.82
2018-03-24T09:41:13.079Z,10.57
2018-03-24T09:43:43.843Z,11.02
2018-03-24T09:46:14.704Z,10.89
2018-03-24T09:48:44.076Z,9.22
2018-03-24T09:51:13.627Z,9.46
2018-03-24T09:53:44.479Z,9.79
2018-03-24T09:56:15.668Z,9.36
2018-03-24T09:58:45.524Z,8.39
2018-03-24T10:01:15.855Z,8.99
2018-03-24T10:03:46.810Z,9.04
2018-03-24T10:06:16.970Z,10.17
2018-03-24T10:08:47.775Z,10.71
2018-03-24T10:11:17.986Z,10.14
2018-03-24T10:13:47.790Z,10.45
2018-03-24T10:16:18.875Z,10.50
2018-03-24T10:18:48.888Z,9.84
2018-03-24T10:24:30.133Z,10.37
2018-03-24T10:26:58.927Z,10.15
2018-03-24T10:29:28.231Z,9.48
2018-03-24T10:31:58.126Z,10.04
2018-03-24T10:34:28.205Z,10.41
2018-03-24T10:36:57.451Z,10.63
2018-03-24T10:39:28.202Z,11.37
2018-03-24T10:41:57.929Z,11.89
2018-03-24T10:44:26.481Z,11.85
2018-03-24T10:46:55.667Z,11.44
2018-03-24T10:49:30.459Z,12.35
2018-03-24T10:52:00.691Z,12.31
2018-03-24T10:54:35.898Z,11.22
2018-03-24T10:57:08.134Z,11.28
2018-03-24T10:59:38.711Z,12.19
2018-03-24T11:02:09.487Z,11.70
2018-03-24T11:04:39.117Z,12.68
2018-03-24T11:07:12.440Z,11.64
2018-03-24T11:09:44.973Z,10.72
2018-03-24T11:12:18.810Z,12.11
2018-03-24T11:14:54.753Z,12.12
2018-03-24T11:17:28.525Z,11.64
2018-03-24T11:19:59.442Z,12.05
2018-03-24T11:22:29.739Z,12.77
2018-03-24T11:25:05.207Z,13.04
2018-03-24T11:27:43.591Z,11.64
2018-03-24T11:30:13.048Z,12.53
2018-03-24T11:32:44.066Z,13.17
2018-03-24T11:35:18.610Z,13.30
2018-03-24T11:44:08.910Z,14.60
2018-03-24T11:46:46.644Z,12.30
2018-03-24T11:49:22.189Z,14.81
2018-03-24T11:52:03.645Z,14.91
2018-03-24T11:57:42.395Z,15.02
2018-03-24T12:00:11.123Z,14.54
2018-03-24T12:02:39.578Z,13.65
2018-03-24T12:05:09.379Z,13.84
2018-03-24T12:07:39.346Z,13.42
2018-03-24T12:10:09.934Z,13.42
2018-03-24T12:12:38.382Z,14.49
2018-03-24T12:15:07.812Z,13.94
2018-03-24T12:17:36.944Z,14.34
2018-03-24T12:20:07.493Z,14.89
2018-03-24T12:22:37.813Z,14.34
2018-03-24T12:25:08.349Z,13.65
2018-03-24T12:27:39.391Z,14.34
2018-03-24T12:30:09.520Z,14.83
2018-03-24T12:32:41.280Z,14.64
2018-03-24T12:35:11.136Z,13.83
2018-03-24T12:37:40.908Z,14.10
2018-03-24T12:40:13.462Z,14.39
2018-03-24T12:42:43.165Z,14.79
2018-03-24T12:45:12.637Z,14.76
2018-03-24T12:47:45.333Z,13.82
2018-03-24T12:50:13.985Z,12.83
2018-03-24T12:52:43.208Z,13.37
2018-03-24T12:55:12.926Z,13.39
2018-03-24T12:57:47.065Z,13.82
2018-03-24T13:00:15.430Z,14.63
2018-03-24T13:02:44.869Z,15.01
2018-03-24T13:05:15.560Z,14.45
2018-03-24T13:07:45.671Z,14.82
2018-03-24T13:10:15.351Z,14.70
2018-03-24T13:12:45.554Z,14.88
2018-03-24T13:15:16.426Z,14.36
2018-03-24T13:17:48.054Z,14.26
2018-03-24T13:20:18.963Z,14.10
2018-03-24T13:22:56.569Z,14.44
2018-03-24T13:25:25.548Z,14.73
2018-03-24T13:28:05.653Z,14.96
2018-03-24T13:30:38.829Z,15.14
2018-03-24T13:33:09.826Z,15.34
2018-03-24T13:35:38.557Z,15.22
2018-03-24T13:38:07.423Z,15.18
2018-03-24T13:40:37.088Z,15.44
2018-03-24T13:43:16.221Z,15.32
2018-03-24T13:45:52.368Z,15.24
2018-03-24T13:48:25.304Z,14.49
2018-03-24T13:50:58.562Z,14.29
2018-03-24T13:53:36.924Z,14.23
2018-03-24T13:56:19.620Z,14.47
2018-03-24T13:58:53.957Z,14.77
2018-03-24T14:02:18.061Z,15.01
2018-03-24T14:04:46.941Z,14.82
2018-03-24T14:07:16.088Z,14.65
2018-03-24T14:09:45.645Z,14.58
2018-03-24T14:12:14.156Z,14.65
2018-03-24T14:14:44.237Z,14.80
2018-03-24T14:17:13.560Z,14.78
2018-03-24T14:19:41.937Z,14.75
2018-03-24T14:22:19.166Z,14.46
2018-03-24T14:24:47.613Z,14.14
2018-03-24T14:27:22.311Z,14.30
2018-03-24T14:29:50.833Z,13.82
2018-03-24T14:32:19.309Z,13.98
2018-03-24T14:34:47.800Z,14.09
2018-03-24T14:37:17.236Z,13.83
2018-03-24T14:39:45.639Z,13.86
2018-03-24T14:42:14.785Z,13.98
2018-03-24T14:44:43.139Z,14.02
2018-03-24T14:47:11.475Z,14.09
2018-03-24T14:49:39.871Z,14.07
2018-03-24T14:52:09.376Z,14.04
2018-03-24T14:54:38.135Z,13.84
2018-03-24T14:57:06.607Z,13.80
2018-03-24T14:59:35.150Z,13.90
2018-03-24T15:02:03.534Z,13.74
2018-03-24T15:04:32.773Z,13.46
2018-03-24T15:07:01.760Z,13.27
2018-03-24T15:09:30.593Z,13.18
2018-03-24T15:11:59.026Z,13.32
2018-03-24T15:14:27.569Z,13.35
2018-03-24T15:16:55.986Z,13.02
2018-03-24T15:19:24.373Z,13.07
2018-03-24T15:21:52.761Z,12.80
2018-03-24T15:24:21.098Z,12.76
2018-03-24T15:26:49.505Z,12.72
2018-03-24T15:29:36.096Z,12.60
2018-03-24T15:32:22.047Z,12.47
2018-03-24T15:35:08.330Z,12.40
2018-03-24T15:37:37.943Z,11.91
2018-03-24T15:40:08.521Z,11.73
2018-03-24T15:42:37.821Z,11.68
2018-03-24T15:45:10.577Z,11.80
2018-03-24T15:47:39.366Z,11.84
2018-03-24T15:50:08.689Z,11.87
2018-03-24T15:52:38.959Z,11.79
2018-03-24T15:55:10.466Z,11.69
2018-03-24T15:57:38.977Z,11.69
2018-03-24T16:00:09.427Z,11.68
2018-03-24T16:02:39.690Z,11.62
2018-03-24T16:05:08.383Z,11.58
2018-03-24T16:07:37.388Z,11.51
2018-03-24T16:10:07.063Z,11.38
2018-03-24T16:12:35.508Z,11.31
2018-03-24T16:15:03.974Z,11.31
2018-03-24T16:17:32.469Z,11.26
2018-03-24T16:20:01.276Z,11.16
2018-03-24T16:22:30.664Z,11.15
2018-03-24T16:25:00.194Z,11.23
2018-03-24T16:27:28.618Z,11.37
2018-03-24T16:29:57.788Z,11.22
2018-03-24T16:32:27.096Z,10.99
2018-03-24T16:34:55.476Z,11.05
2018-03-24T16:37:23.875Z,10.90
2018-03-24T16:39:53.833Z,10.74
2018-03-24T16:42:22.262Z,10.66
2018-03-24T16:44:51.510Z,10.63
2018-03-24T16:47:20.184Z,10.47
2018-03-24T16:49:49.951Z,10.39
2018-03-24T16:52:20.707Z,10.35
2018-03-24T16:54:51.116Z,10.17
2018-03-24T16:57:22.758Z,10.26
2018-03-24T16:59:51.427Z,10.18
2018-03-24T17:02:22.468Z,10.03
2018-03-24T17:04:51.642Z,10.04
2018-03-24T17:07:21.532Z,9.88
2018-03-24T17:09:53.255Z,9.80
2018-03-24T17:12:22.788Z,9.75
2018-03-24T17:14:53.910Z,9.68
2018-03-24T17:17:24.462Z,9.62
2018-03-24T17:19:54.216Z,9.55
2018-03-24T17:22:26.800Z,9.43
2018-03-24T17:24:55.557Z,9.28
2018-03-24T17:27:30.290Z,9.19
2018-03-24T17:30:11.330Z,8.97
2018-03-24T17:32:44.820Z,8.95
2018-03-24T17:35:13.260Z,8.83
2018-03-24T17:37:41.639Z,8.81
2018-03-24T17:40:10.056Z,8.64
2018-03-24T17:42:38.414Z,8.54
2018-03-24T17:45:06.997Z,8.39
2018-03-24T17:47:35.399Z,8.24
2018-03-24T17:50:04.926Z,8.11
2018-03-24T17:52:33.318Z,8.01
2018-03-24T17:55:01.874Z,7.90
2018-03-24T17:57:34.348Z,7.66
2018-03-24T18:00:03.528Z,7.67
2018-03-24T18:02:32.395Z,7.56
2018-03-24T18:05:03.309Z,7.50
2018-03-24T18:07:32.959Z,7.39
2018-03-24T18:10:03.388Z,7.27
2018-03-24T18:12:33.378Z,7.11
2018-03-24T18:15:03.340Z,6.91
2018-03-24T18:17:34.700Z,6.73
2018-03-24T18:20:05.140Z,6.52
2018-03-24T18:22:34.680Z,6.55
2018-03-24T18:25:06.354Z,6.48
2018-03-24T18:27:35.842Z,6.32
2018-03-24T18:30:06.248Z,6.19
2018-03-24T18:32:39.481Z,6.14
2018-03-24T18:35:18.351Z,6.14
2018-03-24T18:37:46.861Z,6.10
2018-03-24T18:40:17.216Z,6.02
2018-03-24T18:42:46.160Z,5.96
2018-03-24T18:45:17.209Z,5.90
2018-03-24T18:47:46.421Z,5.83
2018-03-24T18:50:14.929Z,5.72
2018-03-24T18:52:45.107Z,5.63
2018-03-24T18:57:55.260Z,5.42
2018-03-24T19:00:25.581Z,5.33
2018-03-24T19:02:53.995Z,5.30
2018-03-24T19:05:24.285Z,5.22
2018-03-24T19:07:52.795Z,5.20
2018-03-24T19:10:24.137Z,5.14
2018-03-24T19:12:57.207Z,5.10
2018-03-24T19:15:29.747Z,5.10
2018-03-24T19:17:58.619Z,5.06
2018-03-24T19:20:27.189Z,4.95
2018-03-24T19:22:56.439Z,5.00
2018-03-24T19:25:25.245Z,4.99
2018-03-24T19:27:53.672Z,4.98
2018-03-24T19:30:24.748Z,4.98
2018-03-24T19:32:53.294Z,4.93
2018-03-24T19:35:21.827Z,4.86
2018-03-24T19:37:51.790Z,4.78
2018-03-24T19:40:22.552Z,4.68
2018-03-24T19:42:51.114Z,4.56
2018-03-24T19:45:20.290Z,4.51
2018-03-24T19:47:48.946Z,4.46
2018-03-24T19:50:19.655Z,4.41
2018-03-24T19:52:50.149Z,4.36
2018-03-24T19:55:20.002Z,4.38
2018-03-24T19:57:51.120Z,4.30
2018-03-24T20:00:20.978Z,4.22
2018-03-24T20:02:51.080Z,4.18
2018-03-24T20:05:22.436Z,4.17
2018-03-24T20:07:52.639Z,4.17
2018-03-24T20:10:23.690Z,4.16
2018-03-24T20:12:54.111Z,4.18
2018-03-24T20:15:23.382Z,4.11
2018-03-24T20:17:53.251Z,4.04
2018-03-24T20:20:23.823Z,4.08
2018-03-24T20:22:54.958Z,4.00
2018-03-24T20:25:25.978Z,3.92
2018-03-24T20:27:55.637Z,3.99
2018-03-24T20:30:25.323Z,3.95
2018-03-24T20:32:56.195Z,3.90
2018-03-24T20:35:26.610Z,3.82
2018-03-24T20:37:57.530Z,3.76
2018-03-24T20:40:27.090Z,3.72
2018-03-24T20:42:59.495Z,3.66
2018-03-24T20:45:28.595Z,3.62
2018-03-24T20:47:58.481Z,3.61
2018-03-24T20:50:29.637Z,3.62
2018-03-24T20:52:59.582Z,3.25
2018-03-24T20:55:30.246Z,3.53
2018-03-24T20:58:00.520Z,3.49
2018-03-24T21:00:30.938Z,3.38
2018-03-24T21:03:00.719Z,3.40
2018-03-24T21:05:32.671Z,3.35
2018-03-24T21:08:01.850Z,3.25
2018-03-24T21:10:32.174Z,3.27
2018-03-24T21:13:03.197Z,3.22
2018-03-24T21:15:33.118Z,2.72
2018-03-24T21:18:03.852Z,2.91
2018-03-24T21:20:34.512Z,3.06
2018-03-24T21:23:04.434Z,3.00
2018-03-24T21:25:36.818Z,2.97
2018-03-24T21:28:06.926Z,2.95
2018-03-24T21:30:35.903Z,2.93
2018-03-24T21:33:06.228Z,2.89
2018-03-24T21:35:36.250Z,2.85
2018-03-24T21:38:07.217Z,2.80
2018-03-24T21:40:37.081Z,2.77
2018-03-24T21:43:07.014Z,2.73
2018-03-24T21:45:39.346Z,2.72
2018-03-24T21:48:08.746Z,2.67
2018-03-24T21:50:39.076Z,2.62
2018-03-24T21:53:09.346Z,2.59
2018-03-24T21:55:39.619Z,2.59
2018-03-24T21:58:09.988Z,2.56
2018-03-24T22:00:40.563Z,2.55
2018-03-24T22:03:11.714Z,2.53
2018-03-24T22:05:41.617Z,2.51
2018-03-24T22:08:11.538Z,2.52
2018-03-24T22:10:42.565Z,2.42
2018-03-24T22:13:11.852Z,2.46
2018-03-24T22:15:43.405Z,2.41
2018-03-24T22:18:12.958Z,2.38
2018-03-24T22:20:43.151Z,2.35
2018-03-24T22:23:14.818Z,2.32
2018-03-24T22:25:44.262Z,2.28
2018-03-24T22:28:15.605Z,2.23
2018-03-24T22:30:45.089Z,2.20
2018-03-24T22:33:15.307Z,2.14
2018-03-24T22:35:46.681Z,2.10
2018-03-24T22:38:16.074Z,2.01
2018-03-24T22:40:47.361Z,2.04
2018-03-24T22:43:17.583Z,2.02
2018-03-24T22:45:47.187Z,2.03
2018-03-24T22:48:17.821Z,2.01
2018-03-24T22:50:48.553Z,1.98
2018-03-24T22:53:18.977Z,1.98
2018-03-24T22:55:49.759Z,1.96
2018-03-24T22:58:19.805Z,1.94
2018-03-24T23:00:50.524Z,2.03
2018-03-24T23:03:20.774Z,2.02
2018-03-24T23:05:51.991Z,1.98
2018-03-24T23:08:21.804Z,1.95
2018-03-24T23:10:50.929Z,1.93
2018-03-24T23:13:22.883Z,1.90
2018-03-24T23:15:52.755Z,1.86
2018-03-24T23:18:23.141Z,1.82
2018-03-24T23:20:53.576Z,1.83
2018-03-24T23:23:23.153Z,1.81
2018-03-24T23:25:54.367Z,1.74
2018-03-24T23:28:24.361Z,1.76
2018-03-24T23:30:55.059Z,1.81
2018-03-24T23:33:25.483Z,1.82
2018-03-24T23:35:55.940Z,1.80
2018-03-24T23:38:27.132Z,1.80
2018-03-24T23:40:56.761Z,1.81
2018-03-24T23:43:27.545Z,1.74
2018-03-24T23:45:57.515Z,1.73
2018-03-24T23:48:27.559Z,1.47
2018-03-24T23:50:58.376Z,1.81
2018-03-24T23:53:28.650Z,1.78
2018-03-24T23:55:59.493Z,1.74
2018-03-24T23:58:29.643Z,1.74
